sensor_id;sensor_type;location;lat;lon;timestamp;pressure;altitude;pressure_sealevel;temperature;humidity
25947;BME280;13745;51.470;9.894;2023-06-22T00:01:22;99651.19;;;19.41;93.51
25947;BME280;13745;51.470;9.894;2023-06-22T00:04:07;99657.44;;;19.38;93.74
25947;BME280;13745;51.470;9.894;2023-06-22T00:06:52;99658.38;;;19.37;93.68
25947;BME280;13745;51.470;9.894;2023-06-22T00:09:37;99654.00;;;19.36;93.52
25947;BME280;13745;51.470;9.894;2023-06-22T00:12:23;99644.50;;;19.33;93.87
25947;BME280;13745;51.470;9.894;2023-06-22T00:15:09;99640.22;;;19.31;93.84
25947;BME280;13745;51.470;9.894;2023-06-22T00:17:54;99622.88;;;19.27;93.68
25947;BME280;13745;51.470;9.894;2023-06-22T00:20:41;99626.44;;;19.26;93.99
25947;BME280;13745;51.470;9.894;2023-06-22T00:23:27;99623.03;;;19.24;94.00
25947;BME280;13745;51.470;9.894;2023-06-22T00:26:12;99621.31;;;19.23;93.89
25947;BME280;13745;51.470;9.894;2023-06-22T00:28:59;99624.03;;;19.21;94.48
25947;BME280;13745;51.470;9.894;2023-06-22T00:31:44;99621.41;;;19.21;94.54
25947;BME280;13745;51.470;9.894;2023-06-22T00:34:29;99629.28;;;19.21;94.61
25947;BME280;13745;51.470;9.894;2023-06-22T00:37:14;99625.81;;;19.21;94.68
25947;BME280;13745;51.470;9.894;2023-06-22T00:39:59;99617.09;;;19.19;94.18
25947;BME280;13745;51.470;9.894;2023-06-22T00:42:44;99626.00;;;19.16;94.13
25947;BME280;13745;51.470;9.894;2023-06-22T00:45:30;99626.06;;;19.15;94.40
25947;BME280;13745;51.470;9.894;2023-06-22T00:48:16;99609.38;;;19.16;94.55
25947;BME280;13745;51.470;9.894;2023-06-22T00:51:02;99621.75;;;19.14;94.62
25947;BME280;13745;51.470;9.894;2023-06-22T00:53:47;99607.75;;;19.13;94.70
25947;BME280;13745;51.470;9.894;2023-06-22T00:56:32;99603.41;;;19.12;94.60
25947;BME280;13745;51.470;9.894;2023-06-22T00:59:21;99607.16;;;19.06;94.54
25947;BME280;13745;51.470;9.894;2023-06-22T01:02:08;99599.47;;;19.02;95.01
25947;BME280;13745;51.470;9.894;2023-06-22T01:04:53;99593.28;;;19.03;95.11
25947;BME280;13745;51.470;9.894;2023-06-22T01:07:42;99596.72;;;19.05;94.84
25947;BME280;13745;51.470;9.894;2023-06-22T01:10:34;99587.13;;;19.04;95.20
25947;BME280;13745;51.470;9.894;2023-06-22T01:13:28;99589.78;;;19.04;94.63
25947;BME280;13745;51.470;9.894;2023-06-22T01:16:17;99588.97;;;19.02;94.92
25947;BME280;13745;51.470;9.894;2023-06-22T01:19:13;99584.63;;;19.01;94.52
25947;BME280;13745;51.470;9.894;2023-06-22T01:22:05;99599.63;;;18.99;94.37
25947;BME280;13745;51.470;9.894;2023-06-22T01:25:07;99584.03;;;18.94;94.54
25947;BME280;13745;51.470;9.894;2023-06-22T01:28:01;99584.13;;;18.93;94.19
25947;BME280;13745;51.470;9.894;2023-06-22T01:30:49;99569.34;;;18.90;94.39
25947;BME280;13745;51.470;9.894;2023-06-22T01:33:52;99566.88;;;18.87;94.65
25947;BME280;13745;51.470;9.894;2023-06-22T01:36:39;99571.31;;;18.85;94.51
25947;BME280;13745;51.470;9.894;2023-06-22T01:39:24;99570.53;;;18.83;94.17
25947;BME280;13745;51.470;9.894;2023-06-22T01:42:11;99565.34;;;18.82;94.60
25947;BME280;13745;51.470;9.894;2023-06-22T01:44:59;99580.19;;;18.83;94.41
25947;BME280;13745;51.470;9.894;2023-06-22T01:47:46;99579.41;;;18.80;94.56
25947;BME280;13745;51.470;9.894;2023-06-22T01:50:32;99578.56;;;18.80;94.58
25947;BME280;13745;51.470;9.894;2023-06-22T01:53:18;99577.72;;;18.79;94.83
25947;BME280;13745;51.470;9.894;2023-06-22T01:56:03;99568.16;;;18.77;94.79
25947;BME280;13745;51.470;9.894;2023-06-22T01:58:51;99564.78;;;18.75;95.04
25947;BME280;13745;51.470;9.894;2023-06-22T02:01:42;99566.63;;;18.73;95.29
25947;BME280;13745;51.470;9.894;2023-06-22T02:04:32;99571.00;;;18.72;95.23
25947;BME280;13745;51.470;9.894;2023-06-22T02:07:20;99578.91;;;18.72;95.39
25947;BME280;13745;51.470;9.894;2023-06-22T02:10:08;99583.28;;;18.72;95.69
25947;BME280;13745;51.470;9.894;2023-06-22T02:12:57;99589.41;;;18.72;95.58
25947;BME280;13745;51.470;9.894;2023-06-22T02:15:44;99590.44;;;18.68;95.52
25947;BME280;13745;51.470;9.894;2023-06-22T02:18:30;99602.78;;;18.66;96.04
25947;BME280;13745;51.470;9.894;2023-06-22T02:21:17;99616.78;;;18.67;96.27
25947;BME280;13745;51.470;9.894;2023-06-22T02:24:02;99620.34;;;18.64;96.37
25947;BME280;13745;51.470;9.894;2023-06-22T02:26:48;99617.72;;;18.64;96.38
25947;BME280;13745;51.470;9.894;2023-06-22T02:29:33;99624.72;;;18.65;96.92
25947;BME280;13745;51.470;9.894;2023-06-22T02:32:20;99629.91;;;18.67;97.04
25947;BME280;13745;51.470;9.894;2023-06-22T02:35:05;99634.16;;;18.69;97.08
25947;BME280;13745;51.470;9.894;2023-06-22T02:37:52;99632.34;;;18.71;97.30
25947;BME280;13745;51.470;9.894;2023-06-22T02:40:37;99640.94;;;18.75;97.32
25947;BME280;13745;51.470;9.894;2023-06-22T02:43:23;99639.09;;;18.77;97.40
25947;BME280;13745;51.470;9.894;2023-06-22T02:46:08;99640.69;;;18.81;97.37
25947;BME280;13745;51.470;9.894;2023-06-22T02:48:53;99632.72;;;18.83;97.59
25947;BME280;13745;51.470;9.894;2023-06-22T02:51:39;99642.19;;;18.87;97.79
25947;BME280;13745;51.470;9.894;2023-06-22T02:54:26;99636.94;;;18.87;97.62
25947;BME280;13745;51.470;9.894;2023-06-22T02:57:12;99649.09;;;18.89;97.84
25947;BME280;13745;51.470;9.894;2023-06-22T02:59:59;99649.94;;;18.90;97.82
25947;BME280;13745;51.470;9.894;2023-06-22T03:02:45;99649.94;;;18.90;97.62
25947;BME280;13745;51.470;9.894;2023-06-22T03:05:30;99642.13;;;18.88;98.00
25947;BME280;13745;51.470;9.894;2023-06-22T03:08:17;99643.84;;;18.89;97.92
25947;BME280;13745;51.470;9.894;2023-06-22T03:11:03;99635.88;;;18.91;98.10
25947;BME280;13745;51.470;9.894;2023-06-22T03:13:48;99639.22;;;18.94;97.98
25947;BME280;13745;51.470;9.894;2023-06-22T03:16:35;99657.50;;;18.97;98.10
25947;BME280;13745;51.470;9.894;2023-06-22T03:19:21;99647.84;;;18.98;98.03
25947;BME280;13745;51.470;9.894;2023-06-22T03:22:06;99644.47;;;18.94;97.77
25947;BME280;13745;51.470;9.894;2023-06-22T03:24:51;99647.25;;;18.91;97.40
25947;BME280;13745;51.470;9.894;2023-06-22T03:27:38;99641.31;;;18.86;97.78
25947;BME280;13745;51.470;9.894;2023-06-22T03:30:24;99642.25;;;18.85;97.87
25947;BME280;13745;51.470;9.894;2023-06-22T03:33:09;99630.88;;;18.85;97.71
25947;BME280;13745;51.470;9.894;2023-06-22T03:35:54;99618.56;;;18.87;97.96
25947;BME280;13745;51.470;9.894;2023-06-22T03:38:39;99617.41;;;18.92;97.63
25947;BME280;13745;51.470;9.894;2023-06-22T03:41:26;99617.94;;;19.00;97.70
25947;BME280;13745;51.470;9.894;2023-06-22T03:44:12;99608.00;;;19.07;97.71
25947;BME280;13745;51.470;9.894;2023-06-22T03:46:57;99604.31;;;19.11;97.82
25947;BME280;13745;51.470;9.894;2023-06-22T03:49:42;99599.88;;;19.13;97.92
25947;BME280;13745;51.470;9.894;2023-06-22T03:52:27;99596.22;;;19.16;97.77
25947;BME280;13745;51.470;9.894;2023-06-22T03:55:12;99596.09;;;19.19;98.00
25947;BME280;13745;51.470;9.894;2023-06-22T03:57:57;99598.59;;;19.22;97.78
25947;BME280;13745;51.470;9.894;2023-06-22T04:00:51;99586.31;;;19.22;97.84
25947;BME280;13745;51.470;9.894;2023-06-22T04:03:36;99587.94;;;19.25;97.65
25947;BME280;13745;51.470;9.894;2023-06-22T04:06:21;99590.63;;;19.23;97.57
25947;BME280;13745;51.470;9.894;2023-06-22T04:09:07;99593.25;;;19.23;97.50
25947;BME280;13745;51.470;9.894;2023-06-22T04:11:52;99588.78;;;19.25;97.59
25947;BME280;13745;51.470;9.894;2023-06-22T04:14:37;99594.81;;;19.27;97.90
25947;BME280;13745;51.470;9.894;2023-06-22T04:17:23;99583.53;;;19.25;97.48
25947;BME280;13745;51.470;9.894;2023-06-22T04:20:10;99581.75;;;19.26;97.55
25947;BME280;13745;51.470;9.894;2023-06-22T04:22:55;99579.97;;;19.26;97.69
25947;BME280;13745;51.470;9.894;2023-06-22T04:25:40;99579.97;;;19.26;97.56
25947;BME280;13745;51.470;9.894;2023-06-22T04:28:25;99582.53;;;19.28;97.78
25947;BME280;13745;51.470;9.894;2023-06-22T04:31:10;99583.44;;;19.27;97.32
25947;BME280;13745;51.470;9.894;2023-06-22T04:33:57;99582.53;;;19.28;97.71
25947;BME280;13745;51.470;9.894;2023-06-22T04:36:49;99581.63;;;19.29;97.14
25947;BME280;13745;51.470;9.894;2023-06-22T04:39:33;99579.88;;;19.28;97.28
25947;BME280;13745;51.470;9.894;2023-06-22T04:42:19;99579.84;;;19.29;97.09
25947;BME280;13745;51.470;9.894;2023-06-22T04:45:05;99571.88;;;19.31;96.99
25947;BME280;13745;51.470;9.894;2023-06-22T04:47:50;99568.41;;;19.30;97.31
25947;BME280;13745;51.470;9.894;2023-06-22T04:50:37;99566.63;;;19.31;97.13
25947;BME280;13745;51.470;9.894;2023-06-22T04:53:22;99571.88;;;19.31;97.15
25947;BME280;13745;51.470;9.894;2023-06-22T04:56:13;99570.25;;;19.28;96.87
25947;BME280;13745;51.470;9.894;2023-06-22T04:58:59;99581.66;;;19.27;97.35
25947;BME280;13745;51.470;9.894;2023-06-22T05:01:44;99593.97;;;19.27;97.40
25947;BME280;13745;51.470;9.894;2023-06-22T05:04:30;99588.84;;;19.24;97.10
25947;BME280;13745;51.470;9.894;2023-06-22T05:07:17;99591.34;;;19.27;97.23
25947;BME280;13745;51.470;9.894;2023-06-22T05:10:03;99592.91;;;19.31;97.28
25947;BME280;13745;51.470;9.894;2023-06-22T05:12:48;99590.13;;;19.34;97.24
25947;BME280;13745;51.470;9.894;2023-06-22T05:15:33;99598.78;;;19.36;97.33
25947;BME280;13745;51.470;9.894;2023-06-22T05:18:23;99591.56;;;19.41;97.32
25947;BME280;13745;51.470;9.894;2023-06-22T05:21:08;99591.41;;;19.44;97.36
25947;BME280;13745;51.470;9.894;2023-06-22T05:23:55;99587.81;;;19.47;97.26
25947;BME280;13745;51.470;9.894;2023-06-22T05:26:43;99591.97;;;19.51;96.88
25947;BME280;13745;51.470;9.894;2023-06-22T05:29:29;99590.94;;;19.55;96.92
25947;BME280;13745;51.470;9.894;2023-06-22T05:32:14;99582.00;;;19.59;97.31
25947;BME280;13745;51.470;9.894;2023-06-22T05:34:59;99582.66;;;19.64;97.35
25947;BME280;13745;51.470;9.894;2023-06-22T05:37:44;99584.06;;;19.71;97.36
25947;BME280;13745;51.470;9.894;2023-06-22T05:40:30;99582.13;;;19.75;97.15
25947;BME280;13745;51.470;9.894;2023-06-22T05:43:15;99582.84;;;19.78;97.11
25947;BME280;13745;51.470;9.894;2023-06-22T05:46:01;99572.09;;;19.83;96.73
25947;BME280;13745;51.470;9.894;2023-06-22T05:48:46;99582.16;;;19.92;97.29
25947;BME280;13745;51.470;9.894;2023-06-22T05:51:31;99583.38;;;20.04;97.10
25947;BME280;13745;51.470;9.894;2023-06-22T05:54:16;99583.59;;;20.16;96.56
25947;BME280;13745;51.470;9.894;2023-06-22T05:57:03;99569.00;;;20.28;96.81
25947;BME280;13745;51.470;9.894;2023-06-22T05:59:48;99577.03;;;20.42;96.27
25947;BME280;13745;51.470;9.894;2023-06-22T06:02:33;99577.47;;;20.52;96.23
25947;BME280;13745;51.470;9.894;2023-06-22T06:05:19;99576.91;;;20.63;95.94
25947;BME280;13745;51.470;9.894;2023-06-22T06:08:05;99573.63;;;20.75;95.92
25947;BME280;13745;51.470;9.894;2023-06-22T06:10:51;99582.69;;;20.87;96.10
25947;BME280;13745;51.470;9.894;2023-06-22T06:13:40;99585.53;;;20.99;96.02
25947;BME280;13745;51.470;9.894;2023-06-22T06:16:25;99590.06;;;21.13;95.65
25947;BME280;13745;51.470;9.894;2023-06-22T06:19:11;99592.03;;;21.25;95.38
25947;BME280;13745;51.470;9.894;2023-06-22T06:21:56;99588.19;;;21.33;95.59
25947;BME280;13745;51.470;9.894;2023-06-22T06:24:41;99580.69;;;21.41;95.45
25947;BME280;13745;51.470;9.894;2023-06-22T06:27:26;99576.78;;;21.48;94.97
25947;BME280;13745;51.470;9.894;2023-06-22T06:30:15;99578.25;;;21.53;95.62
25947;BME280;13745;51.470;9.894;2023-06-22T06:33:00;99571.00;;;21.57;95.74
25947;BME280;13745;51.470;9.894;2023-06-22T06:35:45;99574.16;;;21.64;95.46
25947;BME280;13745;51.470;9.894;2023-06-22T06:38:30;99571.28;;;21.68;95.04
25947;BME280;13745;51.470;9.894;2023-06-22T06:41:16;99578.84;;;21.74;95.20
25947;BME280;13745;51.470;9.894;2023-06-22T06:44:01;99577.75;;;21.78;94.63
25947;BME280;13745;51.470;9.894;2023-06-22T06:46:47;99580.88;;;21.85;95.11
25947;BME280;13745;51.470;9.894;2023-06-22T06:49:33;99587.44;;;21.94;94.52
25947;BME280;13745;51.470;9.894;2023-06-22T06:52:18;99580.78;;;22.02;94.83
25947;BME280;13745;51.470;9.894;2023-06-22T06:55:04;99580.19;;;22.13;94.23
25947;BME280;13745;51.470;9.894;2023-06-22T06:57:52;99577.09;;;22.21;93.95
25947;BME280;13745;51.470;9.894;2023-06-22T07:00:37;99582.09;;;22.25;93.83
25947;BME280;13745;51.470;9.894;2023-06-22T07:03:23;99570.44;;;22.29;93.77
25947;BME280;13745;51.470;9.894;2023-06-22T07:06:08;99564.03;;;22.33;94.26
25947;BME280;13745;51.470;9.894;2023-06-22T07:08:54;99562.81;;;22.39;93.99
25947;BME280;13745;51.470;9.894;2023-06-22T07:11:39;99565.94;;;22.46;93.66
25947;BME280;13745;51.470;9.894;2023-06-22T07:14:24;99571.72;;;22.52;93.56
25947;BME280;13745;51.470;9.894;2023-06-22T07:17:09;99565.91;;;22.61;92.61
25947;BME280;13745;51.470;9.894;2023-06-22T07:19:56;99564.41;;;22.71;92.32
25947;BME280;13745;51.470;9.894;2023-06-22T07:22:42;99553.03;;;22.85;92.23
25947;BME280;13745;51.470;9.894;2023-06-22T07:25:28;99557.75;;;22.94;92.16
25947;BME280;13745;51.470;9.894;2023-06-22T07:28:13;99552.94;;;23.01;91.45
25947;BME280;13745;51.470;9.894;2023-06-22T07:30:58;99552.38;;;23.10;91.23
25947;BME280;13745;51.470;9.894;2023-06-22T07:33:43;99546.13;;;23.25;91.12
25947;BME280;13745;51.470;9.894;2023-06-22T07:36:29;99543.63;;;23.37;90.77
25947;BME280;13745;51.470;9.894;2023-06-22T07:39:14;99549.03;;;23.35;90.80
25947;BME280;13745;51.470;9.894;2023-06-22T07:42:00;99536.66;;;23.36;90.45
25947;BME280;13745;51.470;9.894;2023-06-22T07:44:45;99536.06;;;23.45;90.41
25947;BME280;13745;51.470;9.894;2023-06-22T07:47:30;99541.03;;;23.64;90.03
25947;BME280;13745;51.470;9.894;2023-06-22T07:50:19;99533.28;;;23.75;89.73
25947;BME280;13745;51.470;9.894;2023-06-22T07:53:05;99540.19;;;23.90;88.89
25947;BME280;13745;51.470;9.894;2023-06-22T07:55:50;99539.94;;;24.07;88.66
25947;BME280;13745;51.470;9.894;2023-06-22T07:58:35;99541.09;;;24.16;88.72
25947;BME280;13745;51.470;9.894;2023-06-22T08:01:20;99536.50;;;24.32;87.74
25947;BME280;13745;51.470;9.894;2023-06-22T08:04:05;99535.47;;;24.48;87.34
25947;BME280;13745;51.470;9.894;2023-06-22T08:06:50;99540.59;;;24.63;86.80
25947;BME280;13745;51.470;9.894;2023-06-22T08:09:36;99539.75;;;24.63;87.06
25947;BME280;13745;51.470;9.894;2023-06-22T08:12:21;99546.63;;;24.65;87.21
25947;BME280;13745;51.470;9.894;2023-06-22T08:15:07;99542.94;;;24.68;87.03
25947;BME280;13745;51.470;9.894;2023-06-22T08:17:53;99541.75;;;24.85;86.70
25947;BME280;13745;51.470;9.894;2023-06-22T08:20:37;99536.13;;;25.02;86.49
25947;BME280;13745;51.470;9.894;2023-06-22T08:23:22;99544.72;;;25.18;86.00
25947;BME280;13745;51.470;9.894;2023-06-22T08:26:09;99537.56;;;25.32;85.75
25947;BME280;13745;51.470;9.894;2023-06-22T08:28:54;99534.66;;;25.47;85.33
25947;BME280;13745;51.470;9.894;2023-06-22T08:31:39;99530.78;;;25.64;85.01
25947;BME280;13745;51.470;9.894;2023-06-22T08:34:24;99516.53;;;25.78;84.94
25947;BME280;13745;51.470;9.894;2023-06-22T08:37:11;99516.06;;;25.84;84.47
25947;BME280;13745;51.470;9.894;2023-06-22T08:39:56;99515.63;;;25.90;84.43
25947;BME280;13745;51.470;9.894;2023-06-22T08:42:43;99495.97;;;26.04;83.52
25947;BME280;13745;51.470;9.894;2023-06-22T08:45:28;99497.59;;;26.18;82.68
25947;BME280;13745;51.470;9.894;2023-06-22T08:48:13;99494.13;;;26.28;82.15
25947;BME280;13745;51.470;9.894;2023-06-22T08:50:58;99493.78;;;26.33;82.22
25947;BME280;13745;51.470;9.894;2023-06-22T08:53:43;99507.91;;;26.33;81.89
25947;BME280;13745;51.470;9.894;2023-06-22T08:56:29;99504.59;;;26.43;82.11
25947;BME280;13745;51.470;9.894;2023-06-22T08:59:15;99488.28;;;26.58;81.57
25947;BME280;13745;51.470;9.894;2023-06-22T09:02:00;99499.44;;;26.75;81.29
25947;BME280;13745;51.470;9.894;2023-06-22T09:04:45;99494.72;;;26.90;80.60
25947;BME280;13745;51.470;9.894;2023-06-22T09:07:30;99487.44;;;27.03;81.10
25947;BME280;13745;51.470;9.894;2023-06-22T09:10:15;99483.34;;;27.10;80.68
25947;BME280;13745;51.470;9.894;2023-06-22T09:13:00;99484.16;;;27.22;80.25
25947;BME280;13745;51.470;9.894;2023-06-22T09:15:47;99476.31;;;27.31;78.53
25947;BME280;13745;51.470;9.894;2023-06-22T09:18:31;99472.16;;;27.38;78.15
25947;BME280;13745;51.470;9.894;2023-06-22T09:21:16;99472.00;;;27.51;78.05
25947;BME280;13745;51.470;9.894;2023-06-22T09:24:01;99464.72;;;27.64;78.44
25947;BME280;13745;51.470;9.894;2023-06-22T09:26:47;99461.75;;;27.79;78.34
25947;BME280;13745;51.470;9.894;2023-06-22T09:29:32;99448.13;;;27.93;77.74
25947;BME280;13745;51.470;9.894;2023-06-22T09:32:18;99456.84;;;28.16;77.48
25947;BME280;13745;51.470;9.894;2023-06-22T09:35:05;99448.47;;;28.41;76.65
25947;BME280;13745;51.470;9.894;2023-06-22T09:37:50;99452.91;;;28.62;76.13
25947;BME280;13745;51.470;9.894;2023-06-22T09:40:35;99448.03;;;28.67;74.73
25947;BME280;13745;51.470;9.894;2023-06-22T09:43:23;99445.53;;;28.75;75.24
25947;BME280;13745;51.470;9.894;2023-06-22T09:46:09;99444.03;;;28.82;75.51
25947;BME280;13745;51.470;9.894;2023-06-22T09:48:55;99436.31;;;28.89;75.04
25947;BME280;13745;51.470;9.894;2023-06-22T09:51:40;99434.91;;;28.85;75.35
25947;BME280;13745;51.470;9.894;2023-06-22T09:54:25;99432.38;;;28.83;74.89
25947;BME280;13745;51.470;9.894;2023-06-22T09:57:10;99433.97;;;28.95;75.02
25947;BME280;13745;51.470;9.894;2023-06-22T09:59:55;99437.94;;;29.10;74.34
25947;BME280;13745;51.470;9.894;2023-06-22T10:02:41;99434.59;;;29.28;74.68
25947;BME280;13745;51.470;9.894;2023-06-22T10:05:27;99432.41;;;29.52;74.43
25947;BME280;13745;51.470;9.894;2023-06-22T10:08:12;99426.09;;;29.82;73.78
25947;BME280;13745;51.470;9.894;2023-06-22T10:10:57;99422.41;;;29.93;73.34
25947;BME280;13745;51.470;9.894;2023-06-22T10:13:42;99416.50;;;29.99;72.33
25947;BME280;13745;51.470;9.894;2023-06-22T10:16:30;99409.47;;;30.08;72.23
25947;BME280;13745;51.470;9.894;2023-06-22T10:19:15;99407.91;;;30.05;71.61
25947;BME280;13745;51.470;9.894;2023-06-22T10:22:02;99409.00;;;30.03;71.24
25947;BME280;13745;51.470;9.894;2023-06-22T10:24:47;99408.34;;;30.10;71.70
25947;BME280;13745;51.470;9.894;2023-06-22T10:27:32;99399.84;;;30.25;71.92
25947;BME280;13745;51.470;9.894;2023-06-22T10:30:17;99392.09;;;30.31;70.95
25947;BME280;13745;51.470;9.894;2023-06-22T10:33:02;99383.38;;;30.29;71.29
25947;BME280;13745;51.470;9.894;2023-06-22T10:35:47;99379.72;;;30.30;71.04
25947;BME280;13745;51.470;9.894;2023-06-22T10:38:34;99373.31;;;30.41;71.43
25947;BME280;13745;51.470;9.894;2023-06-22T10:41:19;99374.38;;;30.58;70.99
25947;BME280;13745;51.470;9.894;2023-06-22T10:44:04;99376.28;;;30.75;70.69
25947;BME280;13745;51.470;9.894;2023-06-22T10:46:49;99376.13;;;30.76;71.01
25947;BME280;13745;51.470;9.894;2023-06-22T10:49:34;99378.63;;;30.88;69.83
25947;BME280;13745;51.470;9.894;2023-06-22T10:52:20;99372.13;;;30.90;69.15
25947;BME280;13745;51.470;9.894;2023-06-22T10:55:07;99365.69;;;31.01;69.27
25947;BME280;13745;51.470;9.894;2023-06-22T10:57:52;99359.97;;;31.14;68.89
25947;BME280;13745;51.470;9.894;2023-06-22T11:00:37;99363.28;;;31.25;68.09
25947;BME280;13745;51.470;9.894;2023-06-22T11:03:22;99361.31;;;31.27;68.20
25947;BME280;13745;51.470;9.894;2023-06-22T11:06:07;99358.16;;;31.14;67.30
25947;BME280;13745;51.470;9.894;2023-06-22T11:08:52;99351.31;;;31.02;68.00
25947;BME280;13745;51.470;9.894;2023-06-22T11:11:39;99344.44;;;30.99;67.89
25947;BME280;13745;51.470;9.894;2023-06-22T11:14:24;99344.03;;;30.94;67.82
25947;BME280;13745;51.470;9.894;2023-06-22T11:17:10;99339.81;;;30.92;66.93
25947;BME280;13745;51.470;9.894;2023-06-22T11:19:55;99340.47;;;31.03;66.19
25947;BME280;13745;51.470;9.894;2023-06-22T11:22:40;99341.75;;;30.99;66.09
25947;BME280;13745;51.470;9.894;2023-06-22T11:25:25;99322.09;;;31.09;65.13
25947;BME280;13745;51.470;9.894;2023-06-22T11:28:12;99319.47;;;31.17;63.81
25947;BME280;13745;51.470;9.894;2023-06-22T11:30:57;99313.94;;;31.28;63.81
25947;BME280;13745;51.470;9.894;2023-06-22T11:33:42;99313.06;;;31.45;64.79
25947;BME280;13745;51.470;9.894;2023-06-22T11:36:29;99306.44;;;31.57;63.43
25947;BME280;13745;51.470;9.894;2023-06-22T11:39:16;99301.59;;;31.61;63.37
25947;BME280;13745;51.470;9.894;2023-06-22T11:42:02;99297.19;;;31.52;63.15
25947;BME280;13745;51.470;9.894;2023-06-22T11:44:48;99282.31;;;31.31;63.79
25947;BME280;13745;51.470;9.894;2023-06-22T11:47:33;99284.59;;;31.26;63.50
25947;BME280;13745;51.470;9.894;2023-06-22T11:50:18;99275.28;;;31.30;63.48
25947;BME280;13745;51.470;9.894;2023-06-22T11:53:04;99278.00;;;31.39;64.02
25947;BME280;13745;51.470;9.894;2023-06-22T11:55:49;99263.84;;;31.46;64.06
25947;BME280;13745;51.470;9.894;2023-06-22T11:58:34;99257.09;;;31.42;63.83
25947;BME280;13745;51.470;9.894;2023-06-22T12:01:20;99250.22;;;31.40;62.99
25947;BME280;13745;51.470;9.894;2023-06-22T12:04:06;99254.94;;;31.46;62.49
25947;BME280;13745;51.470;9.894;2023-06-22T12:06:51;99251.00;;;31.58;62.84
25947;BME280;13745;51.470;9.894;2023-06-22T12:09:35;99252.06;;;31.65;62.52
25947;BME280;13745;51.470;9.894;2023-06-22T12:12:20;99244.47;;;31.60;62.20
25947;BME280;13745;51.470;9.894;2023-06-22T12:15:06;99236.59;;;31.59;61.22
25947;BME280;13745;51.470;9.894;2023-06-22T12:17:52;99225.41;;;31.64;61.00
25947;BME280;13745;51.470;9.894;2023-06-22T12:20:38;99226.59;;;31.69;60.76
25947;BME280;13745;51.470;9.894;2023-06-22T12:23:23;99224.56;;;31.63;60.88
25947;BME280;13745;51.470;9.894;2023-06-22T12:26:07;99224.88;;;31.60;60.78
25947;BME280;13745;51.470;9.894;2023-06-22T12:28:52;99210.13;;;31.56;60.92
25947;BME280;13745;51.470;9.894;2023-06-22T12:31:37;99209.91;;;31.49;60.95
25947;BME280;13745;51.470;9.894;2023-06-22T12:34:24;99197.03;;;31.53;60.43
25947;BME280;13745;51.470;9.894;2023-06-22T12:37:10;99191.19;;;31.57;60.71
25947;BME280;13745;51.470;9.894;2023-06-22T12:39:55;99189.88;;;31.62;60.80
25947;BME280;13745;51.470;9.894;2023-06-22T12:42:40;99184.84;;;31.67;61.10
25947;BME280;13745;51.470;9.894;2023-06-22T12:45:26;99191.22;;;31.66;61.25
25947;BME280;13745;51.470;9.894;2023-06-22T12:48:12;99199.38;;;31.56;60.72
25947;BME280;13745;51.470;9.894;2023-06-22T12:50:59;99198.13;;;31.42;60.82
25947;BME280;13745;51.470;9.894;2023-06-22T12:53:44;99195.66;;;31.23;60.73
25947;BME280;13745;51.470;9.894;2023-06-22T12:56:29;99196.81;;;31.02;61.64
25947;BME280;13745;51.470;9.894;2023-06-22T12:59:14;99195.22;;;30.92;62.19
25947;BME280;13745;51.470;9.894;2023-06-22T13:02:01;99184.00;;;30.88;62.35
25947;BME280;13745;51.470;9.894;2023-06-22T13:04:46;99177.63;;;30.89;62.47
25947;BME280;13745;51.470;9.894;2023-06-22T13:07:32;99174.78;;;30.91;61.71
25947;BME280;13745;51.470;9.894;2023-06-22T13:10:17;99173.63;;;30.93;62.22
25947;BME280;13745;51.470;9.894;2023-06-22T13:13:02;99160.63;;;30.98;62.16
25947;BME280;13745;51.470;9.894;2023-06-22T13:15:48;99162.69;;;31.22;62.30
25947;BME280;13745;51.470;9.894;2023-06-22T13:18:33;99152.34;;;31.36;62.00
25947;BME280;13745;51.470;9.894;2023-06-22T13:21:19;99143.34;;;31.37;62.05
25947;BME280;13745;51.470;9.894;2023-06-22T13:24:06;99136.97;;;31.38;62.57
25947;BME280;13745;51.470;9.894;2023-06-22T13:26:51;99121.31;;;31.25;62.24
25947;BME280;13745;51.470;9.894;2023-06-22T13:29:36;99122.69;;;31.11;63.00
25947;BME280;13745;51.470;9.894;2023-06-22T13:32:21;99099.94;;;31.07;63.23
25947;BME280;13745;51.470;9.894;2023-06-22T13:35:06;99104.97;;;31.10;62.27
25947;BME280;13745;51.470;9.894;2023-06-22T13:37:52;99111.81;;;31.04;62.11
25947;BME280;13745;51.470;9.894;2023-06-22T13:40:38;99107.22;;;30.97;62.40
25947;BME280;13745;51.470;9.894;2023-06-22T13:43:23;99106.56;;;30.95;63.04
25947;BME280;13745;51.470;9.894;2023-06-22T13:46:09;99106.63;;;30.85;63.90
25947;BME280;13745;51.470;9.894;2023-06-22T13:48:55;99106.06;;;30.73;64.22
25947;BME280;13745;51.470;9.894;2023-06-22T13:51:40;99097.63;;;30.68;64.05
25947;BME280;13745;51.470;9.894;2023-06-22T13:54:25;99084.72;;;30.64;64.43
25947;BME280;13745;51.470;9.894;2023-06-22T13:57:11;99099.94;;;30.63;64.54
25947;BME280;13745;51.470;9.894;2023-06-22T13:59:56;99104.50;;;30.53;63.38
25947;BME280;13745;51.470;9.894;2023-06-22T14:02:42;99085.88;;;30.43;63.25
25947;BME280;13745;51.470;9.894;2023-06-22T14:05:27;99079.59;;;30.35;64.91
25947;BME280;13745;51.470;9.894;2023-06-22T14:08:12;99061.13;;;30.24;64.74
25947;BME280;13745;51.470;9.894;2023-06-22T14:10:58;99032.53;;;30.06;64.74
25947;BME280;13745;51.470;9.894;2023-06-22T14:13:45;99003.78;;;29.90;65.30
25947;BME280;13745;51.470;9.894;2023-06-22T14:16:30;98995.47;;;29.76;65.68
25947;BME280;13745;51.470;9.894;2023-06-22T14:19:17;99003.88;;;29.63;66.03
25947;BME280;13745;51.470;9.894;2023-06-22T14:22:02;99007.72;;;29.51;66.05
25947;BME280;13745;51.470;9.894;2023-06-22T14:24:48;98998.34;;;29.37;66.41
25947;BME280;13745;51.470;9.894;2023-06-22T14:27:33;98994.22;;;29.25;66.08
25947;BME280;13745;51.470;9.894;2023-06-22T14:30:20;99011.41;;;29.13;66.66
25947;BME280;13745;51.470;9.894;2023-06-22T14:33:05;99017.09;;;29.00;66.28
25947;BME280;13745;51.470;9.894;2023-06-22T14:35:50;98982.44;;;28.90;65.71
25947;BME280;13745;51.470;9.894;2023-06-22T14:38:35;98931.75;;;28.80;66.38